sensor_id;sensor_type;location;lat;lon;timestamp;pressure;altitude;pressure_sealevel;temperature;humidity
73422;BME280;61637;47.760;-122.022;2022-09-09T00:00:00;102268.97799999999;;;20.8;31.1
73422;BME280;61637;47.760;-122.022;2022-09-09T00:02:01;102268.97799999999;;;20.8;31.3
73422;BME280;61637;47.760;-122.022;2022-09-09T00:04:02;102268.97799999999;;;20.8;31.5
73422;BME280;61637;47.760;-122.022;2022-09-09T00:06:02;102268.97799999999;;;20.8;32.2
73422;BME280;61637;47.760;-122.022;2022-09-09T00:08:01;102268.97799999999;;;20.8;31.5
73422;BME280;61637;47.760;-122.022;2022-09-09T00:10:05;102268.97799999999;;;20.8;31.6
73422;BME280;61637;47.760;-122.022;2022-09-09T00:12:01;102268.97799999999;;;20.8;31.2
73422;BME280;61637;47.760;-122.022;2022-09-09T00:14:00;102268.97799999999;;;20.7;31.7
73422;BME280;61637;47.760;-122.022;2022-09-09T00:16:02;102268.97799999999;;;20.6;30.7
73422;BME280;61637;47.760;-122.022;2022-09-09T00:18:02;102268.97799999999;;;20.6;31.3
73422;BME280;61637;47.760;-122.022;2022-09-09T00:20:01;102268.97799999999;;;20.4;31.6
73422;BME280;61637;47.760;-122.022;2022-09-09T00:22:05;102268.97799999999;;;20.4;32.6
73422;BME280;61637;47.760;-122.022;2022-09-09T00:24:00;102268.97799999999;;;20.4;33.2
73422;BME280;61637;47.760;-122.022;2022-09-09T00:26:03;102268.97799999999;;;20.3;33.5
73422;BME280;61637;47.760;-122.022;2022-09-09T00:28:01;102268.97799999999;;;20.2;32.3
73422;BME280;61637;47.760;-122.022;2022-09-09T00:30:12;102268.97799999999;;;20.1;32.0
73422;BME280;61637;47.760;-122.022;2022-09-09T00:32:05;102268.97799999999;;;20.0;32.0
73422;BME280;61637;47.760;-122.022;2022-09-09T00:34:03;102268.97799999999;;;20.0;31.8
73422;BME280;61637;47.760;-122.022;2022-09-09T00:36:00;102268.97799999999;;;19.9;31.7
73422;BME280;61637;47.760;-122.022;2022-09-09T00:38:02;102268.97799999999;;;19.9;31.3
73422;BME280;61637;47.760;-122.022;2022-09-09T00:40:02;102268.97799999999;;;19.8;33.1
73422;BME280;61637;47.760;-122.022;2022-09-09T00:42:03;102268.97799999999;;;19.7;33.5
73422;BME280;61637;47.760;-122.022;2022-09-09T00:44:01;102268.97799999999;;;19.7;33.5
73422;BME280;61637;47.760;-122.022;2022-09-09T00:46:05;102268.97799999999;;;19.6;33.4
73422;BME280;61637;47.760;-122.022;2022-09-09T00:48:02;102268.97799999999;;;19.6;33.7
73422;BME280;61637;47.760;-122.022;2022-09-09T00:50:01;102268.97799999999;;;19.5;33.3
73422;BME280;61637;47.760;-122.022;2022-09-09T00:52:03;102268.97799999999;;;19.4;34.3
73422;BME280;61637;47.760;-122.022;2022-09-09T00:56:02;102268.97799999999;;;19.3;35.4
73422;BME280;61637;47.760;-122.022;2022-09-09T00:58:01;102268.97799999999;;;19.3;35.9
73422;BME280;61637;47.760;-122.022;2022-09-09T01:02:00;102268.97799999999;;;19.3;36.1
73422;BME280;61637;47.760;-122.022;2022-09-09T01:04:00;102268.97799999999;;;19.3;36.2
73422;BME280;61637;47.760;-122.022;2022-09-09T01:06:01;102268.97799999999;;;19.2;34.9
73422;BME280;61637;47.760;-122.022;2022-09-09T01:08:00;102268.97799999999;;;19.2;35.7
73422;BME280;61637;47.760;-122.022;2022-09-09T01:10:00;102268.97799999999;;;19.1;35.8
73422;BME280;61637;47.760;-122.022;2022-09-09T01:12:01;102268.97799999999;;;19.1;35.1
73422;BME280;61637;47.760;-122.022;2022-09-09T01:14:01;102268.97799999999;;;19.1;35.3
73422;BME280;61637;47.760;-122.022;2022-09-09T01:16:01;102268.97799999999;;;19.0;37.9
73422;BME280;61637;47.760;-122.022;2022-09-09T01:18:02;102268.97799999999;;;18.9;37.4
73422;BME280;61637;47.760;-122.022;2022-09-09T01:20:03;102268.97799999999;;;18.9;37.7
73422;BME280;61637;47.760;-122.022;2022-09-09T01:22:01;102268.97799999999;;;18.8;36.0
73422;BME280;61637;47.760;-122.022;2022-09-09T01:24:04;102268.97799999999;;;18.8;34.0
73422;BME280;61637;47.760;-122.022;2022-09-09T01:28:01;102268.97799999999;;;18.7;36.7
73422;BME280;61637;47.760;-122.022;2022-09-09T01:30:00;102268.97799999999;;;18.7;35.2
73422;BME280;61637;47.760;-122.022;2022-09-09T01:32:01;102268.97799999999;;;18.6;34.4
73422;BME280;61637;47.760;-122.022;2022-09-09T01:34:00;102268.97799999999;;;18.6;34.8
73422;BME280;61637;47.760;-122.022;2022-09-09T01:36:02;102268.97799999999;;;18.6;35.3
73422;BME280;61637;47.760;-122.022;2022-09-09T01:38:00;102268.97799999999;;;18.5;35.8
73422;BME280;61637;47.760;-122.022;2022-09-09T01:40:01;102268.97799999999;;;18.5;36.4
73422;BME280;61637;47.760;-122.022;2022-09-09T01:42:00;102268.97799999999;;;18.4;36.9
73422;BME280;61637;47.760;-122.022;2022-09-09T01:44:00;101930.339;;;18.4;36.1
73422;BME280;61637;47.760;-122.022;2022-09-09T01:46:01;102268.97799999999;;;18.3;34.8
73422;BME280;61637;47.760;-122.022;2022-09-09T01:48:00;102268.97799999999;;;18.3;34.9
73422;BME280;61637;47.760;-122.022;2022-09-09T01:50:00;101930.339;;;18.3;37.1
73422;BME280;61637;47.760;-122.022;2022-09-09T01:52:00;101930.339;;;18.3;35.6
73422;BME280;61637;47.760;-122.022;2022-09-09T01:54:00;101930.339;;;18.2;37.2
73422;BME280;61637;47.760;-122.022;2022-09-09T01:56:04;101930.339;;;18.1;36.1
73422;BME280;61637;47.760;-122.022;2022-09-09T01:58:05;101930.339;;;18.1;36.3
73422;BME280;61637;47.760;-122.022;2022-09-09T02:00:02;101930.339;;;18.1;36.9
73422;BME280;61637;47.760;-122.022;2022-09-09T02:02:05;101930.339;;;18.0;35.9
73422;BME280;61637;47.760;-122.022;2022-09-09T02:04:02;101930.339;;;17.9;35.7
73422;BME280;61637;47.760;-122.022;2022-09-09T02:06:02;101930.339;;;17.9;36.0
73422;BME280;61637;47.760;-122.022;2022-09-09T02:08:03;101930.339;;;17.8;36.9
73422;BME280;61637;47.760;-122.022;2022-09-09T02:10:01;101930.339;;;17.8;37.0
73422;BME280;61637;47.760;-122.022;2022-09-09T02:12:01;101930.339;;;17.7;38.7
73422;BME280;61637;47.760;-122.022;2022-09-09T02:14:01;101930.339;;;17.6;37.4
73422;BME280;61637;47.760;-122.022;2022-09-09T02:16:03;101930.339;;;17.5;36.9
73422;BME280;61637;47.760;-122.022;2022-09-09T02:18:00;101930.339;;;17.4;38.2
73422;BME280;61637;47.760;-122.022;2022-09-09T02:20:03;101930.339;;;17.3;37.2
73422;BME280;61637;47.760;-122.022;2022-09-09T02:22:00;101930.339;;;17.3;38.7
73422;BME280;61637;47.760;-122.022;2022-09-09T02:24:02;101930.339;;;17.2;39.6
73422;BME280;61637;47.760;-122.022;2022-09-09T02:26:00;101930.339;;;17.2;39.3
73422;BME280;61637;47.760;-122.022;2022-09-09T02:28:00;101930.339;;;17.1;38.8
73422;BME280;61637;47.760;-122.022;2022-09-09T02:30:00;101930.339;;;16.9;40.6
73422;BME280;61637;47.760;-122.022;2022-09-09T02:32:01;101930.339;;;16.9;39.6
73422;BME280;61637;47.760;-122.022;2022-09-09T02:34:01;101930.339;;;16.8;39.5
73422;BME280;61637;47.760;-122.022;2022-09-09T02:36:00;101930.339;;;16.7;38.7
73422;BME280;61637;47.760;-122.022;2022-09-09T02:38:01;101930.339;;;16.6;38.0
73422;BME280;61637;47.760;-122.022;2022-09-09T02:40:01;101930.339;;;16.6;38.2
73422;BME280;61637;47.760;-122.022;2022-09-09T02:42:00;101930.339;;;16.5;39.4
73422;BME280;61637;47.760;-122.022;2022-09-09T02:44:00;101930.339;;;16.4;39.4
73422;BME280;61637;47.760;-122.022;2022-09-09T02:46:03;101930.339;;;16.3;40.4
73422;BME280;61637;47.760;-122.022;2022-09-09T02:48:03;101930.339;;;16.2;40.5
73422;BME280;61637;47.760;-122.022;2022-09-09T02:50:04;101930.339;;;16.1;39.9
73422;BME280;61637;47.760;-122.022;2022-09-09T02:52:02;101930.339;;;16.1;40.5
73422;BME280;61637;47.760;-122.022;2022-09-09T02:54:04;101930.339;;;16.0;40.0
73422;BME280;61637;47.760;-122.022;2022-09-09T02:56:01;101930.339;;;15.9;39.7
73422;BME280;61637;47.760;-122.022;2022-09-09T02:58:00;101930.339;;;15.9;40.4
73422;BME280;61637;47.760;-122.022;2022-09-09T03:00:00;101930.339;;;15.9;40.8
73422;BME280;61637;47.760;-122.022;2022-09-09T03:02:00;101930.339;;;15.8;41.3
73422;BME280;61637;47.760;-122.022;2022-09-09T03:04:00;101930.339;;;15.7;40.7
73422;BME280;61637;47.760;-122.022;2022-09-09T03:06:00;101930.339;;;15.7;40.9
73422;BME280;61637;47.760;-122.022;2022-09-09T03:08:00;102268.97799999999;;;15.6;40.6
73422;BME280;61637;47.760;-122.022;2022-09-09T03:10:00;102268.97799999999;;;15.5;41.0
73422;BME280;61637;47.760;-122.022;2022-09-09T03:12:00;101930.339;;;15.4;40.8
73422;BME280;61637;47.760;-122.022;2022-09-09T03:14:00;102268.97799999999;;;15.4;41.1
73422;BME280;61637;47.760;-122.022;2022-09-09T03:16:01;102268.97799999999;;;15.3;42.5
73422;BME280;61637;47.760;-122.022;2022-09-09T03:18:00;102268.97799999999;;;15.3;40.6
73422;BME280;61637;47.760;-122.022;2022-09-09T03:20:00;102268.97799999999;;;15.2;41.0
73422;BME280;61637;47.760;-122.022;2022-09-09T03:22:00;102268.97799999999;;;15.1;40.5
73422;BME280;61637;47.760;-122.022;2022-09-09T03:24:00;102268.97799999999;;;15.1;40.4
73422;BME280;61637;47.760;-122.022;2022-09-09T03:26:00;102268.97799999999;;;15.0;41.1
73422;BME280;61637;47.760;-122.022;2022-09-09T03:28:01;102268.97799999999;;;14.9;39.8
73422;BME280;61637;47.760;-122.022;2022-09-09T03:30:00;101930.339;;;14.9;40.2
73422;BME280;61637;47.760;-122.022;2022-09-09T03:32:00;102268.97799999999;;;14.8;39.8
73422;BME280;61637;47.760;-122.022;2022-09-09T03:34:00;101930.339;;;14.8;41.2
73422;BME280;61637;47.760;-122.022;2022-09-09T03:36:00;102268.97799999999;;;14.7;41.1
73422;BME280;61637;47.760;-122.022;2022-09-09T03:38:00;101930.339;;;14.7;41.5
73422;BME280;61637;47.760;-122.022;2022-09-09T03:40:00;101930.339;;;14.7;42.9
73422;BME280;61637;47.760;-122.022;2022-09-09T03:42:00;101930.339;;;14.6;42.8
73422;BME280;61637;47.760;-122.022;2022-09-09T03:44:00;101930.339;;;14.6;42.6
73422;BME280;61637;47.760;-122.022;2022-09-09T03:46:00;101930.339;;;14.5;41.7
73422;BME280;61637;47.760;-122.022;2022-09-09T03:48:00;102268.97799999999;;;14.4;42.1
73422;BME280;61637;47.760;-122.022;2022-09-09T03:50:00;101930.339;;;14.4;41.1
73422;BME280;61637;47.760;-122.022;2022-09-09T03:52:00;102268.97799999999;;;14.3;41.8
73422;BME280;61637;47.760;-122.022;2022-09-09T03:54:00;101930.339;;;14.3;42.1
73422;BME280;61637;47.760;-122.022;2022-09-09T03:56:00;102268.97799999999;;;14.3;42.2
73422;BME280;61637;47.760;-122.022;2022-09-09T03:58:00;102268.97799999999;;;14.2;42.3
73422;BME280;61637;47.760;-122.022;2022-09-09T04:00:01;102268.97799999999;;;14.2;42.3
73422;BME280;61637;47.760;-122.022;2022-09-09T04:02:00;102268.97799999999;;;14.2;42.0
73422;BME280;61637;47.760;-122.022;2022-09-09T04:04:00;102268.97799999999;;;14.1;42.3
73422;BME280;61637;47.760;-122.022;2022-09-09T04:06:01;102268.97799999999;;;14.1;42.2
73422;BME280;61637;47.760;-122.022;2022-09-09T04:08:00;102268.97799999999;;;14.1;41.3
73422;BME280;61637;47.760;-122.022;2022-09-09T04:10:01;101930.339;;;14.0;42.2
73422;BME280;61637;47.760;-122.022;2022-09-09T04:12:00;101930.339;;;14.0;42.6
73422;BME280;61637;47.760;-122.022;2022-09-09T04:14:00;101930.339;;;13.9;43.6
73422;BME280;61637;47.760;-122.022;2022-09-09T04:16:01;101930.339;;;13.9;43.4
73422;BME280;61637;47.760;-122.022;2022-09-09T04:18:00;102268.97799999999;;;13.9;42.9
73422;BME280;61637;47.760;-122.022;2022-09-09T04:20:00;102268.97799999999;;;13.8;43.4
73422;BME280;61637;47.760;-122.022;2022-09-09T04:22:00;101930.339;;;13.8;42.7
73422;BME280;61637;47.760;-122.022;2022-09-09T04:24:00;101930.339;;;13.8;43.2
73422;BME280;61637;47.760;-122.022;2022-09-09T04:26:01;101930.339;;;13.7;42.4
73422;BME280;61637;47.760;-122.022;2022-09-09T04:28:00;101930.339;;;13.7;42.8
73422;BME280;61637;47.760;-122.022;2022-09-09T04:30:00;101930.339;;;13.7;41.6
73422;BME280;61637;47.760;-122.022;2022-09-09T04:32:00;101930.339;;;13.7;42.9
73422;BME280;61637;47.760;-122.022;2022-09-09T04:34:00;101930.339;;;13.6;41.8
73422;BME280;61637;47.760;-122.022;2022-09-09T04:36:00;101930.339;;;13.6;42.5
73422;BME280;61637;47.760;-122.022;2022-09-09T04:38:00;101930.339;;;13.6;43.5
73422;BME280;61637;47.760;-122.022;2022-09-09T04:40:01;101930.339;;;13.5;43.3
73422;BME280;61637;47.760;-122.022;2022-09-09T04:42:00;101930.339;;;13.5;43.4
73422;BME280;61637;47.760;-122.022;2022-09-09T04:44:00;101930.339;;;13.4;44.0
73422;BME280;61637;47.760;-122.022;2022-09-09T04:46:01;101930.339;;;13.4;44.6
73422;BME280;61637;47.760;-122.022;2022-09-09T04:48:00;101930.339;;;13.4;43.6
73422;BME280;61637;47.760;-122.022;2022-09-09T04:50:00;101930.339;;;13.4;44.7
73422;BME280;61637;47.760;-122.022;2022-09-09T04:52:01;101930.339;;;13.4;44.2
73422;BME280;61637;47.760;-122.022;2022-09-09T04:54:00;101930.339;;;13.3;44.5
73422;BME280;61637;47.760;-122.022;2022-09-09T04:56:02;101930.339;;;13.4;44.8
73422;BME280;61637;47.760;-122.022;2022-09-09T04:58:02;101930.339;;;13.3;44.5
73422;BME280;61637;47.760;-122.022;2022-09-09T05:00:00;101930.339;;;13.3;44.6
73422;BME280;61637;47.760;-122.022;2022-09-09T05:02:00;101930.339;;;13.3;44.9
73422;BME280;61637;47.760;-122.022;2022-09-09T05:04:01;101930.339;;;13.3;44.2
73422;BME280;61637;47.760;-122.022;2022-09-09T05:06:04;101930.339;;;13.2;43.3
73422;BME280;61637;47.760;-122.022;2022-09-09T05:08:01;101930.339;;;13.2;42.8
73422;BME280;61637;47.760;-122.022;2022-09-09T05:10:00;101930.339;;;13.2;43.6
73422;BME280;61637;47.760;-122.022;2022-09-09T05:12:00;101930.339;;;13.2;43.5
73422;BME280;61637;47.760;-122.022;2022-09-09T05:14:00;101930.339;;;13.2;43.9
73422;BME280;61637;47.760;-122.022;2022-09-09T05:16:01;101930.339;;;13.1;43.7
73422;BME280;61637;47.760;-122.022;2022-09-09T05:18:00;101930.339;;;13.1;43.4
73422;BME280;61637;47.760;-122.022;2022-09-09T05:20:00;101930.339;;;13.1;44.1
73422;BME280;61637;47.760;-122.022;2022-09-09T05:22:00;101930.339;;;13.0;43.6
73422;BME280;61637;47.760;-122.022;2022-09-09T05:24:00;101930.339;;;13.0;43.9
73422;BME280;61637;47.760;-122.022;2022-09-09T05:26:00;101930.339;;;12.9;44.6
73422;BME280;61637;47.760;-122.022;2022-09-09T05:28:00;101930.339;;;12.9;44.7
73422;BME280;61637;47.760;-122.022;2022-09-09T05:30:00;101930.339;;;12.9;44.1
73422;BME280;61637;47.760;-122.022;2022-09-09T05:32:00;101930.339;;;12.8;44.7
73422;BME280;61637;47.760;-122.022;2022-09-09T05:36:01;101930.339;;;12.8;44.7
73422;BME280;61637;47.760;-122.022;2022-09-09T05:38:00;101930.339;;;12.8;45.4
73422;BME280;61637;47.760;-122.022;2022-09-09T05:40:00;101930.339;;;12.7;46.3
73422;BME280;61637;47.760;-122.022;2022-09-09T05:42:00;101930.339;;;12.7;45.4
73422;BME280;61637;47.760;-122.022;2022-09-09T05:44:00;101930.339;;;12.6;44.9
73422;BME280;61637;47.760;-122.022;2022-09-09T05:46:01;101930.339;;;12.6;46.0
73422;BME280;61637;47.760;-122.022;2022-09-09T05:48:00;101930.339;;;12.6;46.1
73422;BME280;61637;47.760;-122.022;2022-09-09T05:50:00;101930.339;;;12.5;47.7
73422;BME280;61637;47.760;-122.022;2022-09-09T05:52:01;101930.339;;;12.4;47.9
73422;BME280;61637;47.760;-122.022;2022-09-09T05:54:00;101930.339;;;12.4;48.0
73422;BME280;61637;47.760;-122.022;2022-09-09T05:56:01;101930.339;;;12.4;48.1
73422;BME280;61637;47.760;-122.022;2022-09-09T05:58:00;101930.339;;;12.3;46.9
73422;BME280;61637;47.760;-122.022;2022-09-09T06:00:00;101930.339;;;12.3;46.6
73422;BME280;61637;47.760;-122.022;2022-09-09T06:02:00;101930.339;;;12.3;47.1
73422;BME280;61637;47.760;-122.022;2022-09-09T06:04:01;101930.339;;;12.3;46.8
73422;BME280;61637;47.760;-122.022;2022-09-09T06:06:00;101930.339;;;12.2;45.9
73422;BME280;61637;47.760;-122.022;2022-09-09T06:08:00;101930.339;;;12.2;45.5
73422;BME280;61637;47.760;-122.022;2022-09-09T06:10:00;101930.339;;;12.2;46.7
73422;BME280;61637;47.760;-122.022;2022-09-09T06:12:00;101930.339;;;12.2;46.5
73422;BME280;61637;47.760;-122.022;2022-09-09T06:14:00;101930.339;;;12.2;45.8
73422;BME280;61637;47.760;-122.022;2022-09-09T06:16:00;101930.339;;;12.2;46.5
73422;BME280;61637;47.760;-122.022;2022-09-09T06:18:00;101930.339;;;12.2;47.8
73422;BME280;61637;47.760;-122.022;2022-09-09T06:20:00;101930.339;;;12.2;47.2
73422;BME280;61637;47.760;-122.022;2022-09-09T06:22:00;101930.339;;;12.2;46.2
73422;BME280;61637;47.760;-122.022;2022-09-09T06:24:00;101930.339;;;12.2;47.8
73422;BME280;61637;47.760;-122.022;2022-09-09T06:26:01;101930.339;;;12.2;47.7
73422;BME280;61637;47.760;-122.022;2022-09-09T06:28:00;101930.339;;;12.2;47.3
73422;BME280;61637;47.760;-122.022;2022-09-09T06:30:00;101930.339;;;12.2;46.5
73422;BME280;61637;47.760;-122.022;2022-09-09T06:32:00;101930.339;;;12.2;46.7
73422;BME280;61637;47.760;-122.022;2022-09-09T06:34:00;101930.339;;;12.2;47.5
73422;BME280;61637;47.760;-122.022;2022-09-09T06:36:01;101930.339;;;12.2;47.0
73422;BME280;61637;47.760;-122.022;2022-09-09T06:38:00;101930.339;;;12.2;47.2
73422;BME280;61637;47.760;-122.022;2022-09-09T06:40:00;101930.339;;;12.1;47.1
73422;BME280;61637;47.760;-122.022;2022-09-09T06:42:00;101930.339;;;12.1;48.3
73422;BME280;61637;47.760;-122.022;2022-09-09T06:44:00;101930.339;;;12.1;48.0
73422;BME280;61637;47.760;-122.022;2022-09-09T06:46:01;101930.339;;;12.1;47.6
73422;BME280;61637;47.760;-122.022;2022-09-09T06:48:00;101930.339;;;12.1;47.9
73422;BME280;61637;47.760;-122.022;2022-09-09T06:50:00;101930.339;;;12.1;47.2
73422;BME280;61637;47.760;-122.022;2022-09-09T06:52:00;101930.339;;;12.1;48.0
73422;BME280;61637;47.760;-122.022;2022-09-09T06:54:01;101930.339;;;12.1;47.3
73422;BME280;61637;47.760;-122.022;2022-09-09T06:56:00;101930.339;;;12.0;47.6
73422;BME280;61637;47.760;-122.022;2022-09-09T06:58:00;101930.339;;;12.0;47.3
73422;BME280;61637;47.760;-122.022;2022-09-09T07:00:01;101930.339;;;11.9;47.5
73422;BME280;61637;47.760;-122.022;2022-09-09T07:02:01;101930.339;;;11.9;48.4
73422;BME280;61637;47.760;-122.022;2022-09-09T07:04:05;101930.339;;;11.9;47.7
73422;BME280;61637;47.760;-122.022;2022-09-09T07:06:00;101930.339;;;11.9;46.8
73422;BME280;61637;47.760;-122.022;2022-09-09T07:08:00;101930.339;;;11.9;45.9
73422;BME280;61637;47.760;-122.022;2022-09-09T07:10:00;101930.339;;;11.8;46.4
73422;BME280;61637;47.760;-122.022;2022-09-09T07:12:01;101930.339;;;11.8;46.1
73422;BME280;61637;47.760;-122.022;2022-09-09T07:14:00;101930.339;;;11.8;45.7
73422;BME280;61637;47.760;-122.022;2022-09-09T07:16:03;101930.339;;;11.8;46.3
73422;BME280;61637;47.760;-122.022;2022-09-09T07:18:01;101930.339;;;11.7;46.9
73422;BME280;61637;47.760;-122.022;2022-09-09T07:20:00;101930.339;;;11.7;46.2
73422;BME280;61637;47.760;-122.022;2022-09-09T07:22:00;101930.339;;;11.6;46.2
73422;BME280;61637;47.760;-122.022;2022-09-09T07:24:00;101930.339;;;11.6;46.3
73422;BME280;61637;47.760;-122.022;2022-09-09T07:26:00;101930.339;;;11.6;47.7
73422;BME280;61637;47.760;-122.022;2022-09-09T07:28:00;101930.339;;;11.6;47.7
73422;BME280;61637;47.760;-122.022;2022-09-09T07:30:00;101930.339;;;11.5;48.8
73422;BME280;61637;47.760;-122.022;2022-09-09T07:32:00;101930.339;;;11.5;48.6
73422;BME280;61637;47.760;-122.022;2022-09-09T07:34:00;101930.339;;;11.5;47.9
73422;BME280;61637;47.760;-122.022;2022-09-09T07:36:04;101930.339;;;11.5;48.2
73422;BME280;61637;47.760;-122.022;2022-09-09T07:38:01;101930.339;;;11.5;49.4
73422;BME280;61637;47.760;-122.022;2022-09-09T07:40:00;101930.339;;;11.5;49.4
73422;BME280;61637;47.760;-122.022;2022-09-09T07:42:00;101930.339;;;11.4;49.0
73422;BME280;61637;47.760;-122.022;2022-09-09T07:44:03;101930.339;;;11.4;48.7
73422;BME280;61637;47.760;-122.022;2022-09-09T07:46:00;101930.339;;;11.4;48.3
73422;BME280;61637;47.760;-122.022;2022-09-09T07:48:00;101930.339;;;11.4;48.0
73422;BME280;61637;47.760;-122.022;2022-09-09T07:50:00;101930.339;;;11.4;48.6
73422;BME280;61637;47.760;-122.022;2022-09-09T07:52:00;101930.339;;;11.4;47.5
73422;BME280;61637;47.760;-122.022;2022-09-09T07:54:01;101930.339;;;11.4;47.4
73422;BME280;61637;47.760;-122.022;2022-09-09T07:56:04;101930.339;;;11.4;47.4
73422;BME280;61637;47.760;-122.022;2022-09-09T07:58:00;101930.339;;;11.4;48.6
73422;BME280;61637;47.760;-122.022;2022-09-09T08:00:00;101930.339;;;11.4;48.1
73422;BME280;61637;47.760;-122.022;2022-09-09T08:02:00;101930.339;;;11.4;48.5
73422;BME280;61637;47.760;-122.022;2022-09-09T08:04:01;101930.339;;;11.4;47.7
73422;BME280;61637;47.760;-122.022;2022-09-09T08:06:01;101930.339;;;11.4;47.4
73422;BME280;61637;47.760;-122.022;2022-09-09T08:08:00;101930.339;;;11.4;47.6
73422;BME280;61637;47.760;-122.022;2022-09-09T08:10:00;101930.339;;;11.4;47.6
73422;BME280;61637;47.760;-122.022;2022-09-09T08:12:00;101930.339;;;11.4;48.0
73422;BME280;61637;47.760;-122.022;2022-09-09T08:14:00;101930.339;;;11.4;49.0
73422;BME280;61637;47.760;-122.022;2022-09-09T08:16:04;101930.339;;;11.3;48.7
73422;BME280;61637;47.760;-122.022;2022-09-09T08:18:00;101930.339;;;11.3;49.0
73422;BME280;61637;47.760;-122.022;2022-09-09T08:20:00;101930.339;;;11.3;48.1
73422;BME280;61637;47.760;-122.022;2022-09-09T08:22:00;101930.339;;;11.3;48.1
73422;BME280;61637;47.760;-122.022;2022-09-09T08:24:01;101930.339;;;11.3;47.6
73422;BME280;61637;47.760;-122.022;2022-09-09T08:26:04;101930.339;;;11.3;47.5
73422;BME280;61637;47.760;-122.022;2022-09-09T08:28:00;101930.339;;;11.3;47.4
73422;BME280;61637;47.760;-122.022;2022-09-09T08:30:00;101930.339;;;11.3;48.0
73422;BME280;61637;47.760;-122.022;2022-09-09T08:32:00;101930.339;;;11.3;48.2
73422;BME280;61637;47.760;-122.022;2022-09-09T08:34:01;101930.339;;;11.3;48.6
73422;BME280;61637;47.760;-122.022;2022-09-09T08:36:00;101930.339;;;11.3;49.2
73422;BME280;61637;47.760;-122.022;2022-09-09T08:38:00;101930.339;;;11.3;49.4
73422;BME280;61637;47.760;-122.022;2022-09-09T08:40:00;101930.339;;;11.2;49.1
73422;BME280;61637;47.760;-122.022;2022-09-09T08:44:02;101930.339;;;11.2;48.9
73422;BME280;61637;47.760;-122.022;2022-09-09T08:46:02;101930.339;;;11.2;48.1
73422;BME280;61637;47.760;-122.022;2022-09-09T08:48:03;101930.339;;;11.2;49.2
73422;BME280;61637;47.760;-122.022;2022-09-09T08:50:04;101930.339;;;11.1;48.7
73422;BME280;61637;47.760;-122.022;2022-09-09T08:52:00;101930.339;;;11.1;54.2
73422;BME280;61637;47.760;-122.022;2022-09-09T08:54:01;101930.339;;;11.1;53.0
73422;BME280;61637;47.760;-122.022;2022-09-09T08:56:01;101930.339;;;11.1;51.4
73422;BME280;61637;47.760;-122.022;2022-09-09T08:58:02;101930.339;;;11.0;50.5
73422;BME280;61637;47.760;-122.022;2022-09-09T09:00:00;101930.339;;;10.9;50.0
73422;BME280;61637;47.760;-122.022;2022-09-09T09:02:03;101930.339;;;10.9;49.6
73422;BME280;61637;47.760;-122.022;2022-09-09T09:04:02;101930.339;;;10.9;49.6
73422;BME280;61637;47.760;-122.022;2022-09-09T09:06:03;101930.339;;;10.9;48.4
73422;BME280;61637;47.760;-122.022;2022-09-09T09:08:03;101930.339;;;10.9;49.1
73422;BME280;61637;47.760;-122.022;2022-09-09T09:10:02;101930.339;;;10.8;50.6
73422;BME280;61637;47.760;-122.022;2022-09-09T09:12:01;101930.339;;;10.8;49.0
73422;BME280;61637;47.760;-122.022;2022-09-09T09:14:01;101930.339;;;10.8;49.5
73422;BME280;61637;47.760;-122.022;2022-09-09T09:16:02;101930.339;;;10.8;48.8
73422;BME280;61637;47.760;-122.022;2022-09-09T09:18:00;101930.339;;;10.8;49.3
73422;BME280;61637;47.760;-122.022;2022-09-09T09:20:00;101930.339;;;10.8;49.7
73422;BME280;61637;47.760;-122.022;2022-09-09T09:22:01;101930.339;;;10.8;50.0
73422;BME280;61637;47.760;-122.022;2022-09-09T09:24:00;101930.339;;;10.8;50.7
73422;BME280;61637;47.760;-122.022;2022-09-09T09:26:00;101930.339;;;10.7;49.8
73422;BME280;61637;47.760;-122.022;2022-09-09T09:28:01;101930.339;;;10.7;50.3
73422;BME280;61637;47.760;-122.022;2022-09-09T09:30:01;101930.339;;;10.7;51.8
73422;BME280;61637;47.760;-122.022;2022-09-09T09:32:00;101930.339;;;10.7;50.1
73422;BME280;61637;47.760;-122.022;2022-09-09T09:34:00;101930.339;;;10.7;50.4
73422;BME280;61637;47.760;-122.022;2022-09-09T09:36:00;101930.339;;;10.7;50.1
73422;BME280;61637;47.760;-122.022;2022-09-09T09:38:00;101930.339;;;10.7;50.2
73422;BME280;61637;47.760;-122.022;2022-09-09T09:40:08;101930.339;;;10.7;49.8
73422;BME280;61637;47.760;-122.022;2022-09-09T09:42:07;101930.339;;;10.7;50.4
73422;BME280;61637;47.760;-122.022;2022-09-09T09:44:00;101930.339;;;10.7;49.7
73422;BME280;61637;47.760;-122.022;2022-09-09T09:46:00;101930.339;;;10.7;49.5
73422;BME280;61637;47.760;-122.022;2022-09-09T09:48:02;101930.339;;;10.7;51.1
73422;BME280;61637;47.760;-122.022;2022-09-09T09:50:00;101930.339;;;10.7;50.5
73422;BME280;61637;47.760;-122.022;2022-09-09T09:52:00;101930.339;;;10.7;52.5
73422;BME280;61637;47.760;-122.022;2022-09-09T09:54:03;101930.339;;;10.7;52.2
73422;BME280;61637;47.760;-122.022;2022-09-09T09:56:00;101930.339;;;10.7;51.5
73422;BME280;61637;47.760;-122.022;2022-09-09T09:58:01;101930.339;;;10.7;50.9
73422;BME280;61637;47.760;-122.022;2022-09-09T10:00:01;101930.339;;;10.7;51.1
73422;BME280;61637;47.760;-122.022;2022-09-09T10:04:01;101930.339;;;10.7;50.2
73422;BME280;61637;47.760;-122.022;2022-09-09T10:06:00;101930.339;;;10.7;50.1